»·PEaware :: N311CC KCCB-KRNM

N311CC :: KCCB-KRNM

FLIGHT INFORMATION

Flight Status: Arrived
Operator: Privately registered:
United States
More flights under this callsign
Pilot: Christian U. (16550)
Aircraft: CESSNA 150 COMMUTER AEROBAT
(C150)
More flights by this aircraft type
Origin: KCCB Cable
United States
Destination: KRNM Ramona
United States
More flights between these airports :: More routes between these airports
Route: PDZ V186 ROBNN V208 JLI
File this flight plan on PilotEdge
Remarks: TEC route ONTP13
Altitude:
(Current/Filed)
7,000ft
Speed:
(Current/Filed)
90kts
Departed: 09-Sep-20 08:22 AM
Arrived: 09-Sep-20 09:08 AM
Distance/Time
Traveled:
75nm/0:45
Distance/Time
To Go:
Arrived

Flight Plot

Page will automatically refresh every two minutes.

Flight plan parsing failed; only flown route is shown


Map Options




Map Legend


Flown Route
Filed Route
Departure Airport
Arrival Airport
Navaid (VOR, NDB)
Fix

Horizontal Profiles

Position Reports

Time Latitude Longitude Heading Altitude Ground
Speed
09-Sep-20 08:11 34.111395 -117.684919 360 1445ft 0kts
09-Sep-20 08:12 34.111395 -117.684919 359 1445ft 0kts
09-Sep-20 08:12 34.111395 -117.684919 359 1445ft 0kts
09-Sep-20 08:14 34.111395 -117.684919 359 1445ft 0kts
09-Sep-20 08:15 34.111395 -117.684919 359 1445ft 0kts
09-Sep-20 08:15 34.111395 -117.684919 359 1445ft 0kts
09-Sep-20 08:17 34.111395 -117.684919 359 1445ft 0kts
09-Sep-20 08:17 34.111888 -117.685531 261 1445ft 12kts
09-Sep-20 08:18 34.110452 -117.690039 245 1445ft 16kts
09-Sep-20 08:20 34.109362 -117.693090 326 1445ft 0kts
09-Sep-20 08:20 34.109362 -117.693090 326 1445ft 0kts
09-Sep-20 08:21 34.110218 -117.691817 66 1445ft 41kts
09-Sep-20 08:22 34.110203 -117.671513 126 2045ft 75kts
09-Sep-20 08:23 34.092098 -117.657797 130 2724ft 75kts
09-Sep-20 08:24 34.074353 -117.642024 140 3351ft 81kts
09-Sep-20 08:25 34.053904 -117.628181 145 3841ft 97kts
09-Sep-20 08:26 34.028221 -117.611212 143 3946ft 101kts
09-Sep-20 08:27 34.004832 -117.597252 148 4571ft 88kts
09-Sep-20 08:28 33.982228 -117.585075 137 5228ft 86kts
09-Sep-20 08:29 33.963494 -117.567936 134 5854ft 87kts
09-Sep-20 08:30 33.942861 -117.551875 132 6452ft 88kts
09-Sep-20 08:31 33.923756 -117.532314 131 6861ft 104kts
09-Sep-20 08:32 33.899163 -117.513199 139 6837ft 105kts
09-Sep-20 08:33 33.874725 -117.493756 141 6823ft 106kts
09-Sep-20 08:34 33.849142 -117.475978 142 6916ft 106kts
09-Sep-20 08:35 33.823244 -117.458137 143 6919ft 107kts
09-Sep-20 08:36 33.797636 -117.439662 141 6924ft 107kts
09-Sep-20 08:37 33.772562 -117.419908 140 6931ft 107kts
09-Sep-20 08:38 33.747875 -117.400008 141 6941ft 108kts
09-Sep-20 08:39 33.722779 -117.379979 139 6961ft 108kts
09-Sep-20 08:40 33.698189 -117.359101 141 6987ft 109kts
09-Sep-20 08:41 33.673149 -117.337775 142 6956ft 110kts
09-Sep-20 08:42 33.648122 -117.317473 143 6933ft 108kts
09-Sep-20 08:43 33.622893 -117.297768 144 6896ft 108kts
09-Sep-20 08:44 33.597494 -117.278628 146 6890ft 108kts
09-Sep-20 08:45 33.573642 -117.257261 136 6916ft 107kts
09-Sep-20 08:46 33.550765 -117.234444 136 6941ft 107kts
09-Sep-20 08:47 33.527451 -117.212160 136 6965ft 107kts
09-Sep-20 08:48 33.504292 -117.189658 135 6985ft 107kts
09-Sep-20 08:49 33.480010 -117.168349 169 6932ft 113kts
09-Sep-20 08:50 33.449727 -117.161497 170 6956ft 110kts
09-Sep-20 08:51 33.420796 -117.148829 154 6564ft 109kts
09-Sep-20 08:52 33.392966 -117.133377 155 6029ft 109kts
09-Sep-20 08:53 33.364991 -117.120067 157 5531ft 107kts
09-Sep-20 08:54 33.337480 -117.106787 156 5050ft 106kts
09-Sep-20 08:55 33.310543 -117.093052 154 4594ft 104kts
09-Sep-20 08:56 33.283902 -117.079691 155 4157ft 103kts
09-Sep-20 08:57 33.257329 -117.067022 156 3950ft 102kts
09-Sep-20 08:58 33.230631 -117.055446 157 3883ft 102kts
09-Sep-20 08:59 33.204215 -117.042715 151 3883ft 102kts
09-Sep-20 09:00 33.179011 -117.027574 147 3927ft 101kts
09-Sep-20 09:01 33.153315 -117.013215 147 3965ft 101kts
09-Sep-20 09:02 33.129103 -116.996300 142 3602ft 100kts
09-Sep-20 09:03 33.106126 -116.978468 142 3154ft 98kts
09-Sep-20 09:04 33.084311 -116.959781 135 2673ft 95kts
09-Sep-20 09:05 33.063898 -116.940772 140 2334ft 91kts
09-Sep-20 09:06 33.043672 -116.930883 138 1730ft 68kts
09-Sep-20 09:07 33.039277 -116.915897 98 1390ft 16kts
09-Sep-20 09:08 33.039601 -116.915026 5 1390ft 0kts
09-Sep-20 09:09 33.039409 -116.912184 101 1392ft 11kts
09-Sep-20 09:10 33.040738 -116.911018 168 1393ft 0kts
09-Sep-20 09:11 33.040739 -116.911018 168 1393ft 0kts

Navigation Log

Ident Type
Flight plan parsing failed, navigation log unavailable